createdAt,value
2019-03-10T00:00:50.349Z,982.143
2019-03-10T00:02:50.604Z,982.123
2019-03-10T00:04:50.010Z,982.123
2019-03-10T00:06:50.310Z,982.117
2019-03-10T00:08:50.570Z,982.054
2019-03-10T00:10:49.709Z,982.050
2019-03-10T00:12:49.895Z,982.010
2019-03-10T00:14:50.062Z,981.989
2019-03-10T00:16:50.365Z,981.914
2019-03-10T00:18:50.559Z,981.870
2019-03-10T00:20:49.714Z,981.845
2019-03-10T00:22:49.914Z,981.775
2019-03-10T00:24:50.265Z,981.781
2019-03-10T00:26:49.685Z,981.835
2019-03-10T00:28:49.950Z,981.829
2019-03-10T00:30:50.258Z,981.860
2019-03-10T00:32:50.618Z,981.848
2019-03-10T00:34:50.093Z,981.850
2019-03-10T00:36:50.512Z,981.859
2019-03-10T00:38:50.059Z,981.856
2019-03-10T00:40:50.388Z,981.826
2019-03-10T00:42:50.424Z,981.793
2019-03-10T00:44:50.553Z,981.688
2019-03-10T00:46:50.360Z,981.641
2019-03-10T00:48:49.683Z,981.621
2019-03-10T00:50:50.087Z,981.604
2019-03-10T00:52:50.388Z,981.567
2019-03-10T00:54:49.644Z,981.541
2019-03-10T00:56:49.874Z,981.509
2019-03-10T00:58:50.045Z,981.462
2019-03-10T01:00:50.297Z,981.360
2019-03-10T01:02:50.561Z,981.360
2019-03-10T01:04:49.921Z,981.353
2019-03-10T01:06:50.152Z,981.317
2019-03-10T01:08:50.340Z,981.275
2019-03-10T01:10:50.449Z,981.252
2019-03-10T01:12:49.631Z,981.204
2019-03-10T01:14:49.746Z,981.201
2019-03-10T01:16:49.970Z,981.192
2019-03-10T01:18:50.148Z,981.165
2019-03-10T01:20:50.296Z,981.153
2019-03-10T01:22:50.483Z,981.139
2019-03-10T01:24:50.593Z,981.090
2019-03-10T01:26:49.944Z,981.127
2019-03-10T01:28:50.089Z,981.128
2019-03-10T01:30:50.351Z,981.125
2019-03-10T01:32:50.549Z,981.103
2019-03-10T01:34:49.907Z,981.074
2019-03-10T01:36:50.132Z,981.049
2019-03-10T01:38:50.300Z,981.042
2019-03-10T01:40:50.580Z,980.955
2019-03-10T01:42:49.885Z,980.926
2019-03-10T01:44:50.052Z,980.853
2019-03-10T01:46:50.453Z,980.848
2019-03-10T01:48:49.652Z,980.794
2019-03-10T01:50:49.805Z,980.764
2019-03-10T01:52:49.970Z,980.673
2019-03-10T01:54:50.139Z,980.647
2019-03-10T01:56:50.526Z,980.631
2019-03-10T01:58:49.622Z,980.639
2019-03-10T02:00:49.746Z,980.606
2019-03-10T02:02:49.891Z,980.480
2019-03-10T02:04:50.333Z,980.444
2019-03-10T02:06:49.656Z,980.415
2019-03-10T02:08:49.810Z,980.419
2019-03-10T02:10:49.889Z,980.413
2019-03-10T02:12:50.173Z,980.404
2019-03-10T02:14:50.422Z,980.403
2019-03-10T02:16:49.734Z,980.330
2019-03-10T02:18:49.895Z,980.287
2019-03-10T02:20:50.077Z,980.235
2019-03-10T02:22:50.244Z,980.219
2019-03-10T02:24:50.398Z,980.216
2019-03-10T02:26:49.788Z,980.226
2019-03-10T02:28:49.953Z,980.227
2019-03-10T02:30:50.092Z,980.217
2019-03-10T02:32:50.468Z,980.216
2019-03-10T02:34:49.976Z,980.200
2019-03-10T02:36:50.194Z,980.188
2019-03-10T02:38:50.392Z,980.190
2019-03-10T02:40:50.524Z,980.232
2019-03-10T02:42:49.690Z,980.235
2019-03-10T02:44:49.835Z,980.177
2019-03-10T02:46:50.038Z,980.156
2019-03-10T02:48:50.265Z,980.133
2019-03-10T02:50:50.569Z,980.082
2019-03-10T02:52:49.726Z,980.034
2019-03-10T02:54:49.980Z,979.957
2019-03-10T02:56:50.303Z,979.913
2019-03-10T02:58:50.505Z,979.849
2019-03-10T03:00:49.667Z,979.745
2019-03-10T03:02:49.779Z,979.650
2019-03-10T03:04:50.274Z,979.583
2019-03-10T03:06:49.763Z,979.474
2019-03-10T03:08:49.777Z,979.425
2019-03-10T03:10:49.961Z,979.380
2019-03-10T03:12:50.180Z,979.325
2019-03-10T03:14:50.314Z,979.314
2019-03-10T03:16:53.152Z,979.284
2019-03-10T03:18:50.421Z,979.254
2019-03-10T03:20:50.616Z,979.175
2019-03-10T03:22:49.804Z,979.122
2019-03-10T03:24:49.996Z,979.087
2019-03-10T03:26:50.347Z,979.014
2019-03-10T03:28:50.595Z,978.978
2019-03-10T03:30:49.779Z,978.899
2019-03-10T03:32:50.076Z,978.861
2019-03-10T03:34:49.709Z,978.812
2019-03-10T03:36:50.087Z,978.795
2019-03-10T03:38:50.215Z,978.784
2019-03-10T03:40:50.416Z,978.771
2019-03-10T03:42:50.583Z,978.772
2019-03-10T03:44:49.743Z,978.776
2019-03-10T03:46:50.039Z,978.757
2019-03-10T03:48:50.271Z,978.720
2019-03-10T03:50:50.433Z,978.620
2019-03-10T03:52:49.665Z,978.575
2019-03-10T03:54:49.962Z,978.587
2019-03-10T03:56:50.216Z,978.604
2019-03-10T03:58:50.480Z,978.588
2019-03-10T04:00:49.704Z,978.558
2019-03-10T04:02:49.946Z,978.563
2019-03-10T04:04:50.414Z,978.571
2019-03-10T04:06:49.733Z,978.560
2019-03-10T04:08:49.956Z,978.566
2019-03-10T04:10:50.080Z,978.556
2019-03-10T04:12:50.212Z,978.543
2019-03-10T04:14:50.438Z,978.506
2019-03-10T04:16:49.686Z,978.482
2019-03-10T04:18:49.778Z,978.412
2019-03-10T04:20:49.912Z,978.360
2019-03-10T04:22:50.083Z,978.327
2019-03-10T04:24:50.269Z,978.241
2019-03-10T04:26:50.444Z,978.222
2019-03-10T04:28:50.596Z,978.157
2019-03-10T04:30:49.684Z,978.154
2019-03-10T04:32:49.813Z,978.126
2019-03-10T04:34:50.382Z,978.120
2019-03-10T04:36:50.613Z,978.113
2019-03-10T04:38:49.701Z,978.122
2019-03-10T04:40:49.790Z,978.103
2019-03-10T04:42:50.020Z,978.020
2019-03-10T04:44:50.089Z,977.988
2019-03-10T04:46:50.267Z,977.926
2019-03-10T04:48:50.404Z,977.926
2019-03-10T04:50:50.526Z,977.788
2019-03-10T04:52:50.532Z,977.772
2019-03-10T04:54:49.699Z,977.678
2019-03-10T04:56:50.127Z,977.657
2019-03-10T04:58:50.234Z,977.591
2019-03-10T05:00:50.285Z,977.561
2019-03-10T05:02:50.252Z,977.492
2019-03-10T05:04:50.364Z,977.453
2019-03-10T05:06:50.363Z,977.380
2019-03-10T05:08:50.359Z,977.354
2019-03-10T05:10:50.328Z,977.271
2019-03-10T05:12:50.358Z,977.245
2019-03-10T05:14:50.299Z,977.226
2019-03-10T05:16:50.478Z,977.104
2019-03-10T05:18:50.456Z,977.084
2019-03-10T05:20:50.415Z,977.045
2019-03-10T05:22:50.412Z,977.052
2019-03-10T05:24:50.375Z,977.051
2019-03-10T05:26:49.866Z,977.003
2019-03-10T05:28:49.803Z,976.876
2019-03-10T05:30:49.796Z,976.763
2019-03-10T05:32:49.851Z,976.703
2019-03-10T05:34:50.045Z,976.555
2019-03-10T05:36:49.992Z,976.518
2019-03-10T05:38:49.945Z,976.448
2019-03-10T05:40:49.947Z,976.431
2019-03-10T05:42:49.984Z,976.381
2019-03-10T05:44:49.907Z,976.381
2019-03-10T05:46:50.010Z,976.325
2019-03-10T05:48:50.005Z,976.312
2019-03-10T05:50:49.948Z,976.297
2019-03-10T05:52:49.981Z,976.297
2019-03-10T05:54:49.949Z,976.275
2019-03-10T05:56:49.993Z,976.270
2019-03-10T05:58:49.928Z,976.254
2019-03-10T06:00:49.922Z,976.300
2019-03-10T06:02:49.912Z,976.287
2019-03-10T06:04:50.042Z,976.280
2019-03-10T06:06:50.091Z,976.230
2019-03-10T06:08:50.072Z,976.161
2019-03-10T06:10:50.161Z,976.115
2019-03-10T06:12:50.227Z,976.061
2019-03-10T06:14:50.171Z,976.053
2019-03-10T06:16:50.433Z,976.002
2019-03-10T06:18:50.352Z,975.979
2019-03-10T06:20:50.317Z,975.899
2019-03-10T06:22:50.312Z,975.886
2019-03-10T06:24:50.308Z,975.863
2019-03-10T06:26:50.369Z,975.815
2019-03-10T06:28:51.295Z,975.792
2019-03-10T06:30:50.293Z,975.771
2019-03-10T06:32:50.219Z,975.721
2019-03-10T06:34:50.345Z,975.701
2019-03-10T06:36:50.125Z,975.693
2019-03-10T06:38:50.077Z,975.680
2019-03-10T06:40:50.043Z,975.605
2019-03-10T06:42:49.987Z,975.576
2019-03-10T06:44:49.923Z,975.544
2019-03-10T06:46:50.026Z,975.509
2019-03-10T06:48:49.961Z,975.502
2019-03-10T06:50:49.923Z,975.460
2019-03-10T06:52:49.851Z,975.449
2019-03-10T06:54:49.793Z,975.455
2019-03-10T06:56:49.804Z,975.439
2019-03-10T06:58:49.771Z,975.401
2019-03-10T07:00:49.713Z,975.367
2019-03-10T07:02:49.649Z,975.346
2019-03-10T07:04:49.912Z,975.333
2019-03-10T07:06:49.916Z,975.300
2019-03-10T07:08:49.926Z,975.266
2019-03-10T07:10:49.911Z,975.175
2019-03-10T07:12:49.855Z,975.152
2019-03-10T07:14:49.779Z,975.092
2019-03-10T07:16:49.800Z,975.092
2019-03-10T07:18:49.755Z,974.953
2019-03-10T07:20:49.708Z,974.921
2019-03-10T07:22:49.721Z,974.874
2019-03-10T07:24:49.632Z,974.839
2019-03-10T07:26:49.724Z,974.810
2019-03-10T07:28:49.726Z,974.760
2019-03-10T07:30:49.630Z,974.732
2019-03-10T07:32:50.593Z,974.733
2019-03-10T07:34:49.843Z,974.750
2019-03-10T07:36:49.721Z,974.743
2019-03-10T07:38:49.612Z,974.722
2019-03-10T07:40:50.571Z,974.697
2019-03-10T07:42:50.210Z,974.650
2019-03-10T07:44:50.263Z,974.612
2019-03-10T07:46:50.254Z,974.591
2019-03-10T07:48:50.196Z,974.488
2019-03-10T07:50:50.219Z,974.468
2019-03-10T07:52:50.173Z,974.410
2019-03-10T07:54:50.186Z,974.362
2019-03-10T07:56:50.154Z,974.313
2019-03-10T07:58:50.195Z,974.305
2019-03-10T08:00:50.550Z,974.120
2019-03-10T08:02:49.712Z,974.085
2019-03-10T08:04:49.886Z,974.080
2019-03-10T08:06:49.981Z,973.914
2019-03-10T08:08:50.143Z,973.882
2019-03-10T08:10:50.161Z,973.912
2019-03-10T08:12:49.714Z,973.931
2019-03-10T08:14:49.724Z,973.957
2019-03-10T08:16:49.804Z,973.932
2019-03-10T08:18:49.766Z,973.916
2019-03-10T08:20:49.683Z,973.935
2019-03-10T08:22:49.667Z,974.012
2019-03-10T08:24:50.591Z,973.992
2019-03-10T08:26:49.684Z,973.908
2019-03-10T08:28:49.654Z,973.856
2019-03-10T08:30:50.028Z,973.729
2019-03-10T08:32:50.015Z,973.684
2019-03-10T08:34:49.734Z,973.605
2019-03-10T08:36:49.864Z,973.580
2019-03-10T08:38:49.793Z,973.529
2019-03-10T08:40:49.690Z,973.513
2019-03-10T08:42:50.031Z,973.513
2019-03-10T08:44:50.404Z,973.556
2019-03-10T08:46:49.708Z,973.582
2019-03-10T08:48:49.678Z,973.542
2019-03-10T08:50:49.713Z,973.483
2019-03-10T08:52:49.675Z,973.483
2019-03-10T08:54:50.604Z,973.389
2019-03-10T08:56:49.647Z,973.285
2019-03-10T08:58:49.665Z,973.284
2019-03-10T09:00:49.653Z,973.306
2019-03-10T09:02:49.783Z,973.330
2019-03-10T09:04:48.695Z,973.328
2019-03-10T09:06:49.786Z,973.288
2019-03-10T09:08:49.751Z,973.271
2019-03-10T09:10:50.119Z,973.214
2019-03-10T09:12:50.128Z,973.168
2019-03-10T09:14:50.078Z,973.050
2019-03-10T09:16:50.243Z,972.986
2019-03-10T09:18:50.316Z,972.891
2019-03-10T09:20:50.386Z,972.841
2019-03-10T09:22:50.418Z,972.806
2019-03-10T09:24:50.430Z,972.760
2019-03-10T09:26:49.664Z,972.731
2019-03-10T09:28:49.632Z,972.647
2019-03-10T09:30:50.391Z,972.603
2019-03-10T09:32:50.379Z,972.481
2019-03-10T09:34:50.337Z,972.468
2019-03-10T09:36:49.692Z,972.368
2019-03-10T09:38:49.759Z,972.241
2019-03-10T09:40:49.918Z,972.226
2019-03-10T09:42:49.688Z,972.178
2019-03-10T09:44:49.618Z,972.156
2019-03-10T09:46:50.389Z,972.156
2019-03-10T09:48:50.392Z,972.079
2019-03-10T09:50:50.385Z,972.063
2019-03-10T09:52:50.304Z,972.032
2019-03-10T09:54:49.652Z,972.032
2019-03-10T09:56:49.729Z,971.940
2019-03-10T09:58:49.677Z,971.913
2019-03-10T10:00:50.653Z,971.914
2019-03-10T10:02:50.008Z,971.875
2019-03-10T10:04:50.270Z,971.847
2019-03-10T10:06:49.883Z,971.807
2019-03-10T10:08:49.905Z,971.784
2019-03-10T10:10:50.001Z,971.741
2019-03-10T10:12:49.969Z,971.720
2019-03-10T10:14:49.901Z,971.701
2019-03-10T10:16:49.980Z,971.643
2019-03-10T10:18:49.952Z,971.626
2019-03-10T10:20:49.975Z,971.547
2019-03-10T10:22:50.012Z,971.532
2019-03-10T10:24:50.035Z,971.458
2019-03-10T10:26:49.727Z,971.416
2019-03-10T10:28:50.344Z,971.351
2019-03-10T10:30:50.262Z,971.346
2019-03-10T10:32:50.206Z,971.334
2019-03-10T10:34:50.508Z,971.259
2019-03-10T10:36:50.509Z,971.236
2019-03-10T10:38:50.438Z,971.157
2019-03-10T10:40:49.763Z,971.165
2019-03-10T10:42:49.749Z,971.147
2019-03-10T10:44:50.107Z,971.101
2019-03-10T10:46:50.159Z,971.062
2019-03-10T10:48:49.784Z,970.995
2019-03-10T10:50:49.769Z,970.976
2019-03-10T10:52:49.751Z,970.981
2019-03-10T10:54:50.478Z,970.961
2019-03-10T10:56:49.731Z,970.930
2019-03-10T10:58:50.029Z,970.930
2019-03-10T11:00:49.822Z,970.915
2019-03-10T11:02:49.952Z,970.849
2019-03-10T11:04:49.947Z,970.805
2019-03-10T11:06:50.034Z,970.803
2019-03-10T11:08:49.989Z,970.754
2019-03-10T11:10:49.941Z,970.667
2019-03-10T11:12:50.374Z,970.609
2019-03-10T11:14:50.544Z,970.493
2019-03-10T11:16:50.246Z,970.414
2019-03-10T11:18:50.382Z,970.372
2019-03-10T11:20:50.559Z,970.256
2019-03-10T11:22:49.745Z,970.216
2019-03-10T11:24:50.404Z,970.156
2019-03-10T11:26:50.496Z,970.198
2019-03-10T11:28:49.717Z,970.183
2019-03-10T11:30:49.735Z,970.232
2019-03-10T11:32:49.817Z,970.137
2019-03-10T11:34:50.262Z,970.126
2019-03-10T11:36:51.026Z,969.974
2019-03-10T11:38:50.126Z,969.941
2019-03-10T11:40:50.292Z,969.835
2019-03-10T11:42:50.394Z,969.811
2019-03-10T11:44:50.563Z,969.835
2019-03-10T11:46:49.782Z,969.797
2019-03-10T11:48:49.943Z,969.799
2019-03-10T11:50:50.055Z,969.877
2019-03-10T11:52:50.191Z,969.873
2019-03-10T11:54:50.451Z,969.788
2019-03-10T11:56:49.683Z,969.767
2019-03-10T11:58:49.964Z,969.718
2019-03-10T12:00:50.107Z,969.699
2019-03-10T12:02:49.808Z,969.675
2019-03-10T12:04:50.174Z,969.554
2019-03-10T12:06:50.398Z,969.579
2019-03-10T12:08:49.662Z,969.450
2019-03-10T12:10:50.262Z,969.436
2019-03-10T12:12:50.465Z,969.446
2019-03-10T12:14:50.538Z,969.329
2019-03-10T12:16:49.798Z,969.308
2019-03-10T12:18:49.916Z,969.296
2019-03-10T12:20:50.028Z,969.280
2019-03-10T12:22:50.166Z,969.252
2019-03-10T12:24:50.300Z,969.221
2019-03-10T12:26:50.546Z,969.188
2019-03-10T12:28:49.834Z,969.351
2019-03-10T12:30:49.986Z,969.213
2019-03-10T12:32:50.075Z,969.195
2019-03-10T12:34:49.723Z,969.116
2019-03-10T12:36:50.323Z,969.125
2019-03-10T12:38:49.952Z,969.175
2019-03-10T12:40:50.166Z,969.175
2019-03-10T12:42:50.264Z,969.320
2019-03-10T12:44:50.408Z,969.270
2019-03-10T12:46:50.627Z,969.290
2019-03-10T12:48:49.807Z,969.347
2019-03-10T12:50:49.980Z,969.496
2019-03-10T12:52:50.057Z,969.509
2019-03-10T12:54:50.276Z,969.483
2019-03-10T12:56:50.524Z,969.439
2019-03-10T12:58:49.652Z,969.421
2019-03-10T13:00:49.816Z,969.342
2019-03-10T13:02:49.911Z,969.245
2019-03-10T13:04:50.271Z,969.245
2019-03-10T13:06:50.487Z,969.196
2019-03-10T13:08:50.559Z,969.206
2019-03-10T13:10:49.777Z,969.305
2019-03-10T13:12:49.921Z,969.383
2019-03-10T13:15:00.500Z,969.317
2019-03-10T13:16:49.662Z,969.415
2019-03-10T13:18:49.766Z,969.403
2019-03-10T13:20:49.941Z,969.301
2019-03-10T13:22:50.053Z,969.302
2019-03-10T13:24:50.223Z,969.297
2019-03-10T13:26:50.510Z,969.274
2019-03-10T13:28:49.655Z,969.172
2019-03-10T13:30:49.827Z,969.172
2019-03-10T13:32:50.057Z,968.952
2019-03-10T13:34:50.414Z,969.060
2019-03-10T13:36:50.569Z,969.044
2019-03-10T13:38:49.684Z,968.959
2019-03-10T13:40:49.827Z,968.937
2019-03-10T13:42:49.942Z,969.016
2019-03-10T13:44:50.012Z,969.019
2019-03-10T13:46:50.220Z,968.931
2019-03-10T13:48:50.333Z,969.036
2019-03-10T13:50:50.418Z,969.084
2019-03-10T13:52:50.583Z,969.122
2019-03-10T13:54:49.681Z,969.196
2019-03-10T13:56:49.831Z,969.164
2019-03-10T13:58:49.897Z,969.148
2019-03-10T14:00:50.042Z,969.131
2019-03-10T14:02:50.157Z,969.122
2019-03-10T14:04:50.520Z,969.146
2019-03-10T14:06:49.897Z,969.128
2019-03-10T14:08:49.995Z,969.086
2019-03-10T14:10:50.195Z,969.173
2019-03-10T14:12:50.391Z,969.213
2019-03-10T14:14:50.490Z,969.218
2019-03-10T14:16:49.706Z,969.347
2019-03-10T14:18:49.856Z,969.298
2019-03-10T14:20:50.044Z,969.329
2019-03-10T14:22:50.179Z,969.339
2019-03-10T14:24:50.243Z,969.363
2019-03-10T14:26:50.465Z,969.269
2019-03-10T14:28:50.582Z,969.374
2019-03-10T14:30:49.796Z,969.405
2019-03-10T14:32:49.932Z,969.435
2019-03-10T14:34:50.194Z,969.573
2019-03-10T14:36:50.351Z,969.651
2019-03-10T14:38:50.409Z,969.618
2019-03-10T14:40:50.474Z,969.556
2019-03-10T14:42:50.629Z,969.702
2019-03-10T14:44:49.726Z,969.686
2019-03-10T14:46:49.917Z,969.748
2019-03-10T14:48:50.093Z,969.737
2019-03-10T14:50:50.266Z,969.829
2019-03-10T14:52:50.432Z,969.893
2019-03-10T14:54:50.540Z,969.889
2019-03-10T14:56:49.661Z,969.877
2019-03-10T14:58:49.762Z,969.844
2019-03-10T15:00:49.985Z,969.896
2019-03-10T15:02:50.160Z,969.957
2019-03-10T15:04:49.690Z,970.016
2019-03-10T15:06:49.911Z,970.015
2019-03-10T15:08:49.981Z,970.017
2019-03-10T15:10:50.168Z,970.084
2019-03-10T15:12:50.309Z,970.145
2019-03-10T15:14:50.396Z,970.074
2019-03-10T15:16:50.623Z,970.003
2019-03-10T15:18:49.784Z,969.855
2019-03-10T15:20:49.917Z,969.869
2019-03-10T15:22:50.038Z,969.863
2019-03-10T15:24:50.167Z,969.863
2019-03-10T15:26:50.325Z,969.909
2019-03-10T15:28:50.843Z,969.902
2019-03-10T15:30:50.840Z,969.927
2019-03-10T15:32:49.998Z,969.933
2019-03-10T15:34:50.328Z,969.956
2019-03-10T15:36:50.461Z,970.015
2019-03-10T15:38:49.633Z,969.970
2019-03-10T15:40:49.741Z,970.069
2019-03-10T15:42:49.834Z,969.995
2019-03-10T15:44:49.938Z,970.124
2019-03-10T15:46:50.352Z,970.056
2019-03-10T15:48:50.443Z,970.149
2019-03-10T15:50:49.715Z,970.150
2019-03-10T15:52:49.879Z,970.222
2019-03-10T15:54:49.991Z,970.172
2019-03-10T15:56:50.227Z,970.132
2019-03-10T15:58:50.334Z,970.393
2019-03-10T16:00:50.403Z,970.365
2019-03-10T16:02:50.557Z,970.499
2019-03-10T16:04:50.037Z,970.515
2019-03-10T16:06:50.297Z,970.419
2019-03-10T16:08:50.460Z,970.498
2019-03-10T16:10:50.550Z,970.472
2019-03-10T16:12:49.976Z,970.559
2019-03-10T16:14:50.060Z,970.617
2019-03-10T16:16:50.278Z,970.617
2019-03-10T16:18:51.337Z,970.658
2019-03-10T16:20:50.444Z,970.689
2019-03-10T16:22:50.558Z,970.762
2019-03-10T16:24:49.661Z,970.857
2019-03-10T16:26:49.920Z,970.921
2019-03-10T16:28:50.027Z,970.982
2019-03-10T16:30:50.135Z,971.097
2019-03-10T16:32:50.221Z,971.166
2019-03-10T16:34:50.553Z,971.122
2019-03-10T16:36:49.903Z,971.174
2019-03-10T16:38:50.048Z,971.260
2019-03-10T16:40:50.138Z,971.370
2019-03-10T16:42:50.312Z,971.360
2019-03-10T16:44:50.431Z,971.446
2019-03-10T16:46:49.651Z,971.573
2019-03-10T16:48:49.784Z,971.583
2019-03-10T16:50:49.923Z,971.628
2019-03-10T16:52:50.043Z,971.628
2019-03-10T16:54:50.193Z,971.833
2019-03-10T16:56:50.443Z,971.776
2019-03-10T16:58:50.550Z,971.869
2019-03-10T17:00:49.748Z,971.843
2019-03-10T17:02:49.938Z,971.940
2019-03-10T17:04:50.192Z,972.011
2019-03-10T17:06:50.387Z,972.082
2019-03-10T17:08:50.545Z,972.153
2019-03-10T17:10:49.694Z,972.193
2019-03-10T17:12:49.852Z,972.240
2019-03-10T17:14:49.960Z,972.279
2019-03-10T17:16:50.187Z,972.468
2019-03-10T17:18:50.314Z,972.476
2019-03-10T17:20:50.481Z,972.528
2019-03-10T17:22:49.613Z,972.646
2019-03-10T17:24:49.810Z,972.710
2019-03-10T17:26:50.011Z,972.700
2019-03-10T17:28:50.245Z,972.782
2019-03-10T17:30:50.385Z,972.905
2019-03-10T17:32:50.469Z,972.960
2019-03-10T17:34:49.774Z,973.018
2019-03-10T17:36:49.976Z,973.045
2019-03-10T17:38:50.127Z,973.132
2019-03-10T17:40:50.266Z,973.132
2019-03-10T17:42:50.436Z,973.373
2019-03-10T17:44:50.579Z,973.457
2019-03-10T17:46:49.864Z,973.479
2019-03-10T17:48:50.001Z,973.563
2019-03-10T17:50:50.087Z,973.642
2019-03-10T17:52:50.171Z,973.765
2019-03-10T17:54:50.242Z,973.962
2019-03-10T17:56:50.386Z,974.017
2019-03-10T17:58:50.593Z,974.218
2019-03-10T18:00:50.059Z,974.218
2019-03-10T18:02:50.159Z,974.287
2019-03-10T18:04:50.495Z,974.387
2019-03-10T18:06:49.751Z,974.410
2019-03-10T18:08:49.880Z,974.592
2019-03-10T18:10:50.006Z,974.628
2019-03-10T18:12:50.160Z,974.632
2019-03-10T18:14:50.234Z,974.718
2019-03-10T18:16:50.364Z,974.682
2019-03-10T18:18:50.501Z,974.721
2019-03-10T18:20:50.592Z,974.859
2019-03-10T18:22:49.730Z,974.775
2019-03-10T18:24:49.814Z,974.812
2019-03-10T18:26:50.034Z,974.787
2019-03-10T18:28:50.239Z,974.764
2019-03-10T18:30:50.414Z,974.821
2019-03-10T18:32:50.612Z,974.795
2019-03-10T18:34:49.882Z,974.867
2019-03-10T18:36:50.155Z,974.834
2019-03-10T18:38:50.226Z,974.783
2019-03-10T18:40:50.362Z,974.807
2019-03-10T18:42:50.473Z,974.734
2019-03-10T18:44:50.599Z,974.782
2019-03-10T18:46:49.956Z,974.978
2019-03-10T18:48:50.140Z,974.963
2019-03-10T18:50:50.279Z,974.988
2019-03-10T18:52:50.435Z,975.045
2019-03-10T18:54:50.570Z,975.051
2019-03-10T18:56:49.733Z,975.117
2019-03-10T18:58:49.823Z,975.110
2019-03-10T19:00:49.930Z,975.073
2019-03-10T19:02:50.068Z,975.073
2019-03-10T19:04:50.563Z,975.284
2019-03-10T19:06:49.707Z,975.328
2019-03-10T19:08:49.872Z,975.333
2019-03-10T19:10:50.007Z,975.584
2019-03-10T19:12:50.116Z,975.647
2019-03-10T19:14:50.238Z,975.770
2019-03-10T19:16:50.440Z,975.800
2019-03-10T19:18:50.602Z,975.759
2019-03-10T19:20:49.662Z,975.830
2019-03-10T19:22:50.179Z,975.910
2019-03-10T19:24:50.241Z,975.946
2019-03-10T19:26:50.552Z,976.023
2019-03-10T19:28:49.674Z,976.087
2019-03-10T19:30:49.761Z,976.073
2019-03-10T19:32:49.976Z,976.159
2019-03-10T19:34:50.318Z,976.205
2019-03-10T19:36:57.843Z,976.263
2019-03-10T19:38:50.043Z,976.288
2019-03-10T19:40:50.250Z,976.288
2019-03-10T19:42:50.317Z,976.372
2019-03-10T19:44:50.511Z,976.446
2019-03-10T19:46:49.956Z,976.474
2019-03-10T19:48:50.138Z,976.576
2019-03-10T19:50:50.242Z,976.631
2019-03-10T19:52:50.362Z,976.637
2019-03-10T19:54:50.472Z,976.760
2019-03-10T19:56:49.807Z,976.853
2019-03-10T19:58:49.982Z,976.931
2019-03-10T20:00:50.138Z,977.100
2019-03-10T20:02:50.265Z,977.100
2019-03-10T20:04:49.798Z,977.432
2019-03-10T20:06:50.044Z,977.561
2019-03-10T20:08:50.212Z,977.884
2019-03-10T20:10:50.339Z,977.948
2019-03-10T20:12:50.602Z,978.056
2019-03-10T20:14:49.821Z,978.351
2019-03-10T20:16:50.080Z,978.468
2019-03-10T20:18:50.263Z,978.524
2019-03-10T20:20:50.445Z,978.825
2019-03-10T20:22:49.662Z,978.900
2019-03-10T20:24:49.787Z,979.184
2019-03-10T20:26:50.003Z,979.047
2019-03-10T20:28:50.138Z,979.142
2019-03-10T20:30:50.264Z,979.076
2019-03-10T20:32:50.380Z,978.896
2019-03-10T20:34:49.943Z,978.767
2019-03-10T20:36:52.507Z,978.762
2019-03-10T20:38:49.682Z,978.716
2019-03-10T20:40:49.810Z,978.700
2019-03-10T20:42:49.924Z,978.766
2019-03-10T20:44:50.051Z,978.805
2019-03-10T20:46:50.312Z,978.865
2019-03-10T20:48:50.413Z,978.889
2019-03-10T20:50:50.551Z,978.868
2019-03-10T20:52:49.861Z,978.842
2019-03-10T20:54:50.075Z,978.846
2019-03-10T20:56:50.374Z,978.911
2019-03-10T20:58:50.537Z,978.977
2019-03-10T21:00:49.734Z,979.041
2019-03-10T21:02:49.899Z,979.083
2019-03-10T21:04:50.333Z,979.010
2019-03-10T21:06:50.549Z,979.012
2019-03-10T21:08:49.725Z,979.041
2019-03-10T21:10:49.905Z,979.143
2019-03-10T21:12:50.076Z,979.202
2019-03-10T21:14:50.382Z,979.333
2019-03-10T21:16:50.594Z,979.346
2019-03-10T21:18:49.804Z,979.380
2019-03-10T21:20:50.022Z,979.395
2019-03-10T21:22:50.176Z,979.354
2019-03-10T21:24:50.358Z,979.359
2019-03-10T21:26:49.639Z,979.426
2019-03-10T21:28:49.801Z,979.547
2019-03-10T21:30:49.899Z,979.600
2019-03-10T21:32:50.101Z,979.649
2019-03-10T21:34:50.401Z,979.670
2019-03-10T21:36:49.762Z,979.714
2019-03-10T21:38:49.951Z,979.806
2019-03-10T21:40:50.135Z,979.841
2019-03-10T21:42:50.449Z,979.931
2019-03-10T21:44:50.598Z,980.090
2019-03-10T21:46:50.310Z,980.101
2019-03-10T21:48:50.555Z,980.122
2019-03-10T21:50:49.762Z,980.152
2019-03-10T21:52:50.030Z,980.208
2019-03-10T21:54:50.183Z,980.220
2019-03-10T21:56:50.411Z,980.266
2019-03-10T21:58:50.555Z,980.300
2019-03-10T22:00:49.663Z,980.399
2019-03-10T22:02:49.771Z,980.402
2019-03-10T22:04:50.169Z,980.482
2019-03-10T22:06:50.462Z,980.457
2019-03-10T22:08:50.549Z,980.494
2019-03-10T22:10:49.761Z,980.508
2019-03-10T22:12:49.976Z,980.536
2019-03-10T22:14:50.108Z,980.617
2019-03-10T22:16:50.278Z,980.667
2019-03-10T22:18:50.460Z,980.788
2019-03-10T22:20:50.543Z,980.858
2019-03-10T22:22:50.466Z,980.906
2019-03-10T22:24:50.579Z,980.926
2019-03-10T22:26:49.852Z,980.955
2019-03-10T22:28:50.463Z,981.017
2019-03-10T22:30:49.926Z,981.066
2019-03-10T22:32:50.026Z,981.175
2019-03-10T22:34:50.559Z,981.221
2019-03-10T22:36:49.844Z,981.247
2019-03-10T22:38:50.022Z,981.247
2019-03-10T22:40:50.215Z,981.106
2019-03-10T22:42:50.317Z,981.106
2019-03-10T22:44:50.532Z,981.126
2019-03-10T22:46:49.891Z,981.115
2019-03-10T22:48:50.004Z,981.051
2019-03-10T22:50:50.165Z,981.069
2019-03-10T22:52:50.276Z,981.127
2019-03-10T22:54:50.445Z,981.182
2019-03-10T22:56:49.696Z,981.230
2019-03-10T22:58:49.834Z,981.274
2019-03-10T23:00:49.987Z,981.302
2019-03-10T23:02:50.131Z,981.374
2019-03-10T23:04:50.585Z,981.435
2019-03-10T23:06:49.839Z,981.519
2019-03-10T23:08:49.930Z,981.651
2019-03-10T23:10:50.080Z,981.722
2019-03-10T23:12:50.196Z,981.805
2019-03-10T23:14:50.280Z,981.866
2019-03-10T23:16:52.741Z,981.947
2019-03-10T23:18:49.942Z,981.988
2019-03-10T23:20:50.063Z,981.951
2019-03-10T23:22:50.409Z,981.954
2019-03-10T23:24:50.598Z,981.922
2019-03-10T23:26:49.937Z,981.924
2019-03-10T23:28:50.079Z,981.939
2019-03-10T23:30:50.264Z,981.958
2019-03-10T23:32:50.517Z,981.990
2019-03-10T23:34:49.840Z,982.020
2019-03-10T23:36:50.339Z,982.022
2019-03-10T23:38:50.495Z,982.130
2019-03-10T23:40:50.585Z,982.147
2019-03-10T23:42:49.725Z,982.103
2019-03-10T23:44:49.908Z,982.141
2019-03-10T23:46:50.047Z,982.132
2019-03-10T23:48:50.260Z,982.137
2019-03-10T23:50:50.367Z,982.185
2019-03-10T23:52:50.436Z,982.185
2019-03-10T23:54:50.530Z,982.271
2019-03-10T23:56:49.704Z,982.285
2019-03-10T23:58:49.800Z,982.286
